createdAt,value
2022-08-28T00:03:58.734Z,92.06
2022-08-28T00:09:06.354Z,92.1
2022-08-28T00:14:15.136Z,91.95
2022-08-28T00:19:23.354Z,92.02
2022-08-28T00:24:31.542Z,91.8
2022-08-28T00:29:39.159Z,91.77
2022-08-28T00:34:47.874Z,91.76001
2022-08-28T00:39:54.761Z,91.78
2022-08-28T00:45:02.751Z,91.76001
2022-08-28T00:50:09.925Z,91.86
2022-08-28T00:55:17.331Z,91.7
2022-08-28T01:00:24.624Z,91.50001
2022-08-28T01:05:31.109Z,91.51999
2022-08-28T01:10:39.577Z,91.84
2022-08-28T01:15:46.133Z,91.8
2022-08-28T01:20:54.823Z,91.95
2022-08-28T01:26:01.246Z,91.96
2022-08-28T01:31:09.551Z,92.12001
2022-08-28T01:36:17.823Z,92.22
2022-08-28T01:41:24.054Z,92.23001
2022-08-28T01:46:32.090Z,92.23001
2022-08-28T01:51:40.260Z,92.38
2022-08-28T01:56:56.808Z,92.39
2022-08-28T02:02:05.317Z,92.38
2022-08-28T02:07:12.248Z,92.46
2022-08-28T02:12:20.096Z,92.57
2022-08-28T02:17:27.235Z,92.71
2022-08-28T02:22:36.918Z,92.81
2022-08-28T02:27:44.218Z,92.78
2022-08-28T02:32:51.425Z,92.57
2022-08-28T02:37:59.042Z,92.66001
2022-08-28T02:43:07.123Z,92.64
2022-08-28T02:48:14.573Z,92.71
2022-08-28T02:53:22.167Z,92.61001
2022-08-28T02:58:30.039Z,92.61001
2022-08-28T03:03:37.197Z,92.5
2022-08-28T03:08:46.083Z,92.46
2022-08-28T03:13:52.862Z,92.41
2022-08-28T03:19:01.455Z,92.28
2022-08-28T03:24:09.289Z,92.16001
2022-08-28T03:29:16.429Z,92.25
2022-08-28T03:34:24.730Z,92.33001
2022-08-28T03:39:40.977Z,92.45
2022-08-28T03:44:49.052Z,92.57
2022-08-28T03:49:56.846Z,92.5
2022-08-28T03:55:04.526Z,92.62
2022-08-28T04:00:13.179Z,92.33001
2022-08-28T04:05:21.267Z,92.26001
2022-08-28T04:10:29.339Z,92.2
2022-08-28T04:15:37.893Z,92.22
2022-08-28T04:20:46.642Z,92.04
2022-08-28T04:25:54.136Z,91.75
2022-08-28T04:31:01.336Z,91.76001
2022-08-28T04:36:08.833Z,91.58
2022-08-28T04:41:16.952Z,91.61
2022-08-28T04:46:23.602Z,91.58
2022-08-28T04:51:31.415Z,91.7
2022-08-28T04:56:38.088Z,91.79
2022-08-28T05:01:45.181Z,91.7
2022-08-28T05:06:52.375Z,91.62001
2022-08-28T05:12:00.453Z,91.50001
2022-08-28T05:17:08.338Z,91.48001
2022-08-28T05:22:25.462Z,91.24
2022-08-28T05:27:33.846Z,91.08001
2022-08-28T05:32:41.213Z,90.87001
2022-08-28T05:37:50.093Z,90.85
2022-08-28T05:42:58.787Z,90.75
2022-08-28T05:48:06.408Z,90.38
2022-08-28T05:53:13.781Z,90.19
2022-08-28T05:58:22.013Z,89.82
2022-08-28T06:03:29.570Z,89.61
2022-08-28T06:08:36.767Z,89.73001
2022-08-28T06:13:44.394Z,89.46
2022-08-28T06:18:51.930Z,89.57
2022-08-28T06:24:40.592Z,89.33001
2022-08-28T06:29:48.408Z,89.33001
2022-08-28T06:34:56.223Z,89.39
2022-08-28T06:40:04.158Z,89.48001
2022-08-28T06:45:11.922Z,89.73001
2022-08-28T06:50:20.238Z,90.1
2022-08-28T06:55:27.627Z,90.76
2022-08-28T07:00:36.023Z,91.51999
2022-08-28T07:05:43.507Z,92.07
2022-08-28T07:10:50.456Z,92.45
2022-08-28T07:15:57.667Z,92.59
2022-08-28T07:21:05.336Z,92.76
2022-08-28T07:27:46.593Z,93.08001
2022-08-28T07:32:54.575Z,93.08001
2022-08-28T07:38:05.378Z,93.14
2022-08-28T07:43:13.499Z,93.22001
2022-08-28T07:48:20.978Z,93.35
2022-08-28T07:53:28.106Z,93.47
2022-08-28T07:58:36.601Z,93.49
2022-08-28T08:03:48.741Z,93.48001
2022-08-28T08:08:55.857Z,93.5
2022-08-28T08:14:03.164Z,93.48001
2022-08-28T08:19:10.955Z,93.52
2022-08-28T08:24:17.598Z,93.59
2022-08-28T08:29:39.452Z,93.51001
2022-08-28T08:35:02.014Z,93.5
2022-08-28T08:40:09.054Z,93.4
2022-08-28T08:45:16.418Z,93.54
2022-08-28T08:50:23.725Z,93.30001
2022-08-28T08:55:31.451Z,93.54
2022-08-28T09:00:40.059Z,93.52
2022-08-28T09:05:50.015Z,93.12
2022-08-28T09:10:58.253Z,92.76
2022-08-28T09:16:06.823Z,91.81
2022-08-28T09:21:14.979Z,92.28
2022-08-28T09:26:23.632Z,91.17
2022-08-28T09:31:30.138Z,90.30001
2022-08-28T09:36:37.961Z,88.93001
2022-08-28T09:41:45.162Z,88.99
2022-08-28T09:46:53.531Z,88.74
2022-08-28T09:52:01.074Z,86.46
2022-08-28T09:57:09.858Z,86.58999
2022-08-28T10:02:17.708Z,86.13
2022-08-28T10:07:24.379Z,86.6
2022-08-28T10:12:32.606Z,87.62
2022-08-28T10:17:40.505Z,87.17
2022-08-28T10:22:48.414Z,87.18
2022-08-28T10:27:55.777Z,88.16001
2022-08-28T10:33:02.971Z,87.78
2022-08-28T10:38:10.561Z,87.36
2022-08-28T10:43:18.620Z,87.83999
2022-08-28T10:48:27.609Z,88.30001
2022-08-28T10:53:35.143Z,88.5
2022-08-28T10:58:42.141Z,88.86001
2022-08-28T11:03:50.620Z,88.94
2022-08-28T11:08:58.486Z,89.53
2022-08-28T11:14:06.169Z,89.58
2022-08-28T11:19:14.224Z,90.08
2022-08-28T11:24:22.255Z,90.26
2022-08-28T11:29:29.181Z,90.78
2022-08-28T11:34:36.375Z,91.13
2022-08-28T11:39:43.821Z,91.35
2022-08-28T11:44:51.794Z,91.54
2022-08-28T11:49:59.577Z,91.11
2022-08-28T11:55:07.091Z,91.33
2022-08-28T12:00:15.000Z,90.78
2022-08-28T12:05:22.134Z,90.64
2022-08-28T12:10:29.927Z,89.86
2022-08-28T12:15:38.008Z,90.46
2022-08-28T12:20:46.086Z,90.37001
2022-08-28T12:25:53.880Z,90.01
2022-08-28T12:31:00.700Z,89.28
2022-08-28T12:36:08.223Z,89.78
2022-08-28T12:41:15.926Z,89.08
2022-08-28T12:46:24.717Z,89.37
2022-08-28T12:51:32.838Z,88.94
2022-08-28T12:56:39.475Z,88.96
2022-08-28T13:01:45.814Z,88.65001
2022-08-28T13:06:53.039Z,88.42
2022-08-28T13:12:01.037Z,85.87001
2022-08-28T13:17:09.166Z,86.3
2022-08-28T13:22:17.144Z,85.88
2022-08-28T13:27:26.263Z,85.12
2022-08-28T13:32:34.370Z,84.97001
2022-08-28T13:37:42.648Z,84.43
2022-08-28T13:42:49.850Z,84.83001
2022-08-28T13:47:58.817Z,85.66001
2022-08-28T13:53:06.928Z,84.81
2022-08-28T13:58:14.276Z,85.56
2022-08-28T14:03:20.567Z,85.83
2022-08-28T14:08:29.209Z,86.28
2022-08-28T14:13:37.936Z,86.54
2022-08-28T14:18:44.701Z,86.89
2022-08-28T14:23:54.967Z,87.56
2022-08-28T14:29:03.451Z,88.13
2022-08-28T14:34:12.732Z,88.28
2022-08-28T14:39:20.659Z,88.52
2022-08-28T14:44:29.022Z,89.01
2022-08-28T14:49:37.146Z,87.29
2022-08-28T14:54:45.304Z,85.43
2022-08-28T14:59:53.213Z,86.74
2022-08-28T15:05:01.348Z,87.98
2022-08-28T15:10:09.370Z,89.01999
2022-08-28T15:15:18.338Z,89.66001
2022-08-28T15:20:26.932Z,90.16001
2022-08-28T15:25:35.733Z,90.49
2022-08-28T15:30:44.409Z,90.89
2022-08-28T15:35:50.620Z,91.15001
2022-08-28T15:40:59.126Z,91.25
2022-08-28T15:46:06.327Z,91.51999
2022-08-28T15:51:14.987Z,91.74
2022-08-28T15:56:22.665Z,91.78
2022-08-28T16:01:29.853Z,91.94
2022-08-28T16:06:37.048Z,92.21
2022-08-28T16:11:44.273Z,92.31
2022-08-28T16:16:52.006Z,92.39
2022-08-28T16:22:00.074Z,92.48
2022-08-28T16:27:07.171Z,92.45
2022-08-28T16:32:15.169Z,92.57
2022-08-28T16:37:22.508Z,92.59
2022-08-28T16:42:30.159Z,92.7
2022-08-28T16:47:37.750Z,92.80001
2022-08-28T16:52:45.611Z,92.86
2022-08-28T16:57:53.750Z,92.86
2022-08-28T17:03:03.123Z,92.91
2022-08-28T17:08:10.457Z,92.92
2022-08-28T17:13:18.344Z,93.0
2022-08-28T17:18:26.932Z,93.04
2022-08-28T17:23:34.625Z,92.99
2022-08-28T17:28:42.612Z,93.02
2022-08-28T17:33:49.706Z,93.15001
2022-08-28T17:38:57.008Z,93.22001
2022-08-28T17:44:05.215Z,93.30001
2022-08-28T17:49:12.593Z,93.30001
2022-08-28T17:54:20.743Z,93.36
2022-08-28T17:59:28.380Z,93.46
2022-08-28T18:04:36.459Z,93.45
2022-08-28T18:09:44.547Z,93.47
2022-08-28T18:14:52.805Z,93.4
2022-08-28T18:20:00.311Z,93.36
2022-08-28T18:25:08.228Z,93.46
2022-08-28T18:30:16.666Z,93.56
2022-08-28T18:35:24.313Z,93.54
2022-08-28T18:40:33.447Z,93.5
2022-08-28T18:45:41.853Z,93.58001
2022-08-28T18:50:49.966Z,93.54
2022-08-28T18:55:56.405Z,93.61
2022-08-28T19:01:03.586Z,93.58001
2022-08-28T19:06:10.829Z,93.6
2022-08-28T19:11:18.121Z,93.63
2022-08-28T19:16:25.193Z,93.64
2022-08-28T19:21:34.059Z,93.78
2022-08-28T19:26:40.224Z,93.81
2022-08-28T19:31:48.061Z,93.82
2022-08-28T19:36:55.260Z,93.78
2022-08-28T19:42:03.096Z,93.8
2022-08-28T19:47:10.785Z,93.69
2022-08-28T19:52:18.785Z,93.64
2022-08-28T19:57:26.459Z,93.51001
2022-08-28T20:02:34.541Z,93.67
2022-08-28T20:07:42.498Z,93.74
2022-08-28T20:12:50.121Z,93.8
2022-08-28T20:17:58.753Z,93.78
2022-08-28T20:23:05.820Z,93.82
2022-08-28T20:28:12.873Z,93.82
2022-08-28T20:33:20.198Z,93.95
2022-08-28T20:38:28.120Z,93.92
2022-08-28T20:43:35.430Z,93.87
2022-08-28T20:48:42.460Z,93.9
2022-08-28T20:53:50.443Z,93.89
2022-08-28T20:58:58.772Z,93.89
2022-08-28T21:04:06.092Z,93.94
2022-08-28T21:09:13.837Z,93.89
2022-08-28T21:14:27.777Z,93.92
2022-08-28T21:19:34.620Z,93.92
2022-08-28T21:24:42.465Z,93.9
2022-08-28T21:29:50.579Z,93.99
2022-08-28T21:34:58.457Z,94.03
2022-08-28T21:40:06.492Z,94.01
2022-08-28T21:45:13.951Z,94.01999
2022-08-28T21:50:21.475Z,93.95
2022-08-28T21:55:30.524Z,93.82
2022-08-28T22:00:44.634Z,93.85
2022-08-28T22:05:51.579Z,93.84
2022-08-28T22:10:58.785Z,93.77
2022-08-28T22:16:30.638Z,93.8
2022-08-28T22:16:35.334Z,93.8
2022-08-28T22:21:38.983Z,93.83
2022-08-28T22:26:45.916Z,93.82
2022-08-28T22:31:53.858Z,93.87
2022-08-28T22:37:01.288Z,93.89
2022-08-28T22:42:09.677Z,93.91001
2022-08-28T22:47:16.682Z,93.88
2022-08-28T22:52:24.408Z,93.9
2022-08-28T22:57:32.316Z,93.9
2022-08-28T23:02:39.949Z,93.87
2022-08-28T23:07:47.992Z,93.83
2022-08-28T23:12:55.482Z,93.78
2022-08-28T23:18:03.102Z,93.74
2022-08-28T23:23:11.210Z,93.69
2022-08-28T23:28:17.503Z,93.77
2022-08-28T23:33:24.723Z,93.81
2022-08-28T23:38:31.897Z,93.9
2022-08-28T23:43:39.095Z,93.94
2022-08-28T23:48:46.539Z,93.86001
2022-08-28T23:53:54.662Z,93.93001
2022-08-28T23:59:01.528Z,93.97
